Time;durP1;ratioP1;P1;durP2;ratioP2;P2;SDS_P1;SDS_P2;PMS_P1;PMS_P2;Temp;Humidity;BMP_temperature;BMP_pressure;BME280_temperature;BME280_humidity;BME280_pressure;Samples;Min_cycle;Max_cycle;Signal;HPM_P1;HPM_P2
2023/02/23 00:01:34;;;;;;;10.00;4.77;;;;;;;;;;6134002;23;20540;-88
2023/02/23 00:04:40;;;;;;;12.03;5.70;;;;;;;;;;6134434;23;20212;-88
2023/02/23 00:07:47;;;;;;;9.27;5.00;;;;;;;;;;6135758;23;20228;-89
2023/02/23 00:10:57;;;;;;;12.90;5.03;;;;;;;;;;6103113;23;20506;-89
2023/02/23 00:14:07;;;;;;;11.10;5.40;;;;;;;;;;6139341;23;20176;-88
2023/02/23 00:17:16;;;;;;;10.87;4.90;;;;;;;;;;6141687;23;20181;-89
2023/02/23 00:20:26;;;;;;;10.37;5.37;;;;;;;;;;6137778;23;20178;-88
2023/02/23 00:23:32;;;;;;;12.47;5.00;;;;;;;;;;6141952;23;20225;-87
2023/02/23 00:26:38;;;;;;;14.83;4.80;;;;;;;;;;6138075;23;20193;-86
2023/02/23 00:29:50;;;;;;;8.63;4.80;;;;;;;;;;6126204;23;20177;-88
2023/02/23 00:32:56;;;;;;;12.53;5.50;;;;;;;;;;6140397;23;20260;-88
2023/02/23 00:36:05;;;;;;;11.80;5.47;;;;;;;;;;6139373;23;20181;-88
2023/02/23 00:39:18;;;;;;;9.07;4.90;;;;;;;;;;6139361;23;20180;-89
2023/02/23 00:42:23;;;;;;;11.97;5.00;;;;;;;;;;6121425;23;20176;-89
2023/02/23 00:45:32;;;;;;;9.23;4.57;;;;;;;;;;6141738;23;20170;-88
2023/02/23 00:48:39;;;;;;;10.40;4.50;;;;;;;;;;6143018;23;20525;-89
2023/02/23 00:51:48;;;;;;;9.67;4.40;;;;;;;;;;6145717;23;20207;-88
2023/02/23 00:54:54;;;;;;;12.50;6.27;;;;;;;;;;6142127;23;20169;-89
2023/02/23 00:58:00;;;;;;;13.27;5.80;;;;;;;;;;6138825;23;20173;-88
2023/02/23 01:01:08;;;;;;;8.23;4.50;;;;;;;;;;6137611;23;20198;-88
2023/02/23 01:04:14;;;;;;;9.13;4.83;;;;;;;;;;6138695;23;20235;-88
2023/02/23 01:07:19;;;;;;;11.53;4.67;;;;;;;;;;6149226;23;20189;-87
2023/02/23 01:10:28;;;;;;;9.03;5.37;;;;;;;;;;6151583;23;20212;-89
2023/02/23 01:13:34;;;;;;;11.57;4.90;;;;;;;;;;6149884;23;20185;-88
2023/02/23 01:16:42;;;;;;;10.37;5.17;;;;;;;;;;6149002;23;20169;-88
2023/02/23 01:19:49;;;;;;;13.30;5.13;;;;;;;;;;6150370;23;20213;-88
2023/02/23 01:22:56;;;;;;;9.03;4.90;;;;;;;;;;6149263;23;20180;-87
2023/02/23 01:26:02;;;;;;;13.57;5.10;;;;;;;;;;6151737;23;20164;-89
2023/02/23 01:29:11;;;;;;;8.77;4.60;;;;;;;;;;6152010;23;20203;-86
2023/02/23 01:32:18;;;;;;;11.10;4.83;;;;;;;;;;6151877;23;20165;-87
2023/02/23 01:35:24;;;;;;;10.30;4.97;;;;;;;;;;6151636;23;20157;-88
2023/02/23 01:38:31;;;;;;;9.30;4.80;;;;;;;;;;6151128;23;20166;-87
2023/02/23 01:41:41;;;;;;;7.77;4.60;;;;;;;;;;6130994;23;20181;-87
2023/02/23 01:45:20;;;;;;;12.87;5.10;;;;;;;;;;6151969;23;20180;-88
2023/02/23 01:48:33;;;;;;;15.37;4.70;;;;;;;;;;6151427;23;20184;-89
2023/02/23 01:51:41;;;;;;;30.00;11.67;;;;;;;;;;6152079;23;20192;-88
2023/02/23 01:54:50;;;;;;;10.67;5.07;;;;;;;;;;6151596;23;20210;-88
2023/02/23 01:57:58;;;;;;;11.57;5.17;;;;;;;;;;6116511;23;20224;-87
2023/02/23 02:01:04;;;;;;;10.50;4.97;;;;;;;;;;6100828;23;20169;-88
2023/02/23 02:04:15;;;;;;;15.50;5.27;;;;;;;;;;6133839;23;20502;-88
2023/02/23 02:07:23;;;;;;;10.53;5.50;;;;;;;;;;6131486;23;20197;-88
2023/02/23 02:10:46;;;;;;;13.50;6.17;;;;;;;;;;6114509;23;20221;-87
2023/02/23 02:13:53;;;;;;;14.63;6.47;;;;;;;;;;6131326;23;20252;-89
2023/02/23 02:17:13;;;;;;;14.57;6.23;;;;;;;;;;6137236;23;20177;-88
2023/02/23 02:20:41;;;;;;;12.13;6.37;;;;;;;;;;6113536;23;20177;-88
2023/02/23 02:24:09;;;;;;;13.73;6.33;;;;;;;;;;6130690;23;20177;-88
2023/02/23 02:27:25;;;;;;;13.80;6.40;;;;;;;;;;6131699;23;20201;-89
2023/02/23 02:30:46;;;;;;;11.70;6.10;;;;;;;;;;6141887;23;20202;-88
2023/02/23 02:34:02;;;;;;;11.70;6.17;;;;;;;;;;6126061;23;20227;-88
2023/02/23 02:37:17;;;;;;;10.87;5.57;;;;;;;;;;6134057;23;20177;-89
2023/02/23 02:40:27;;;;;;;11.47;5.60;;;;;;;;;;6131121;23;20177;-89
2023/02/23 02:43:37;;;;;;;11.43;5.47;;;;;;;;;;6131697;23;20172;-89
2023/02/23 02:46:47;;;;;;;13.77;5.83;;;;;;;;;;6131156;23;20670;-89
2023/02/23 02:49:58;;;;;;;12.23;5.20;;;;;;;;;;6133147;23;20245;-89
2023/02/23 02:53:08;;;;;;;9.03;5.00;;;;;;;;;;6131253;23;20204;-89
2023/02/23 02:56:18;;;;;;;11.77;5.07;;;;;;;;;;6130965;23;20208;-89
2023/02/23 04:18:15;;;;;;;10.70;5.57;;;;;;;;;;6131904;23;20441;-89
2023/02/23 04:21:23;;;;;;;17.80;6.17;;;;;;;;;;6132367;23;20177;-89
2023/02/23 04:24:30;;;;;;;12.47;5.80;;;;;;;;;;6133988;23;20189;-88
2023/02/23 04:27:36;;;;;;;10.83;5.90;;;;;;;;;;6132169;23;20196;-89
2023/02/23 04:30:41;;;;;;;14.90;6.33;;;;;;;;;;6131709;23;20212;-89
2023/02/23 04:33:48;;;;;;;12.40;6.40;;;;;;;;;;6132050;23;20626;-89
2023/02/23 04:36:54;;;;;;;13.67;6.37;;;;;;;;;;6131449;23;20290;-90
2023/02/23 04:40:00;;;;;;;13.47;6.33;;;;;;;;;;6131461;23;20651;-89
2023/02/23 04:43:06;;;;;;;13.93;6.87;;;;;;;;;;6131584;23;20257;-89
2023/02/23 04:46:11;;;;;;;13.50;6.50;;;;;;;;;;6132379;23;20194;-89
2023/02/23 04:49:19;;;;;;;13.40;6.60;;;;;;;;;;6131772;23;20169;-89
2023/02/23 04:52:24;;;;;;;17.80;6.80;;;;;;;;;;6130977;23;20602;-89
2023/02/23 04:55:31;;;;;;;13.27;6.27;;;;;;;;;;6146676;23;20185;-89
2023/02/23 04:58:37;;;;;;;13.57;6.73;;;;;;;;;;6151672;23;20189;-89
2023/02/23 05:01:43;;;;;;;19.43;7.07;;;;;;;;;;6134599;23;20177;-89
2023/02/23 05:04:50;;;;;;;16.03;7.47;;;;;;;;;;6132583;23;20487;-89
2023/02/23 05:08:01;;;;;;;16.53;7.77;;;;;;;;;;6134307;23;20192;-86
2023/02/23 05:11:08;;;;;;;15.43;7.07;;;;;;;;;;6132649;23;20565;-90
2023/02/23 05:14:15;;;;;;;12.97;6.93;;;;;;;;;;6132480;23;20256;-90
2023/02/23 05:17:20;;;;;;;15.43;7.70;;;;;;;;;;6133000;23;20181;-89
2023/02/23 05:20:28;;;;;;;16.50;7.70;;;;;;;;;;6133940;23;20177;-90
2023/02/23 05:23:35;;;;;;;19.03;7.40;;;;;;;;;;6117735;23;20577;-90
2023/02/23 05:26:41;;;;;;;14.27;7.07;;;;;;;;;;6131750;23;20177;-90
2023/02/23 05:29:46;;;;;;;21.30;8.80;;;;;;;;;;6131735;23;20578;-90
2023/02/23 05:32:52;;;;;;;19.13;8.87;;;;;;;;;;6132302;23;20177;-88
2023/02/23 05:36:00;;;;;;;36.00;10.90;;;;;;;;;;6131499;23;20173;-89
2023/02/23 05:39:09;;;;;;;22.87;8.80;;;;;;;;;;6132519;23;20173;-89
2023/02/23 05:42:15;;;;;;;19.33;8.30;;;;;;;;;;6131443;23;20475;-89
2023/02/23 05:45:21;;;;;;;25.00;11.50;;;;;;;;;;6131778;23;20180;-89
2023/02/23 05:48:26;;;;;;;17.37;8.43;;;;;;;;;;6138481;23;20196;-89
2023/02/23 05:51:35;;;;;;;17.60;7.17;;;;;;;;;;6133728;23;20329;-89
2023/02/23 05:54:41;;;;;;;14.43;7.57;;;;;;;;;;6150701;23;20177;-89
2023/02/23 05:57:47;;;;;;;17.03;7.50;;;;;;;;;;6147704;23;20160;-87
2023/02/23 06:00:53;;;;;;;16.23;7.73;;;;;;;;;;6131631;23;20197;-90
2023/02/23 06:03:59;;;;;;;16.97;7.67;;;;;;;;;;6134215;23;20177;-87
2023/02/23 06:07:07;;;;;;;19.87;8.00;;;;;;;;;;6135477;23;20415;-89
2023/02/23 06:10:13;;;;;;;18.03;7.80;;;;;;;;;;6139322;23;20193;-86
2023/02/23 06:13:18;;;;;;;16.47;7.37;;;;;;;;;;6142848;23;20195;-90
2023/02/23 23:11:08;;;;;;;54.45;24.50;;;;;;;;;;6128583;23;20205;-94
2023/02/23 23:18:32;;;;;;;56.72;24.50;;;;;;;;;;6178082;23;20161;-93
2023/02/23 23:21:39;;;;;;;54.33;24.38;;;;;;;;;;6176903;23;20220;-94
2023/02/23 23:24:47;;;;;;;56.95;24.55;;;;;;;;;;6158337;23;20152;-92
2023/02/23 23:27:57;;;;;;;57.47;24.55;;;;;;;;;;6177340;23;20153;-91
2023/02/23 23:31:03;;;;;;;55.50;24.80;;;;;;;;;;6159327;23;20197;-93
2023/02/23 23:34:10;;;;;;;58.08;24.10;;;;;;;;;;6175310;23;20197;-94
